Time;durP1;ratioP1;P1;durP2;ratioP2;P2;SDS_P1;SDS_P2;PMS_P1;PMS_P2;Temp;Humidity;BMP_temperature;BMP_pressure;BME280_temperature;BME280_humidity;BME280_pressure;Samples;Min_cycle;Max_cycle;Signal;HPM_P1;HPM_P2
2023/03/16 00:00:02;;;;;;;3.58;2.30;;;4.60;99.90;;;;;;4957376;28;92434;-74
2023/03/16 00:02:29;;;;;;;3.95;2.40;;;4.70;99.90;;;;;;4955815;28;92487;-74
2023/03/16 00:04:56;;;;;;;4.10;2.70;;;4.60;99.90;;;;;;4956649;28;93375;-74
2023/03/16 00:07:23;;;;;;;4.70;2.83;;;4.60;99.90;;;;;;4956146;28;91811;-74
2023/03/16 00:09:50;;;;;;;7.20;2.67;;;4.60;99.90;;;;;;4955939;28;92520;-74
2023/03/16 00:12:18;;;;;;;6.32;2.80;;;4.60;99.90;;;;;;4956814;28;92549;-74
2023/03/16 00:14:47;;;;;;;8.10;3.08;;;4.60;99.90;;;;;;4954432;28;95714;-74
2023/03/16 00:17:19;;;;;;;7.18;2.60;;;4.60;99.90;;;;;;4971153;28;98246;-74
2023/03/16 00:19:54;;;;;;;10.50;2.95;;;4.60;99.90;;;;;;4957199;28;92540;-74
2023/03/16 00:22:24;;;;;;;4.70;2.60;;;4.60;99.90;;;;;;4956824;28;92796;-74
2023/03/16 00:24:54;;;;;;;5.10;2.80;;;4.60;99.90;;;;;;4956586;28;93270;-74
2023/03/16 00:27:23;;;;;;;7.97;3.05;;;4.60;99.90;;;;;;4955135;28;96477;-75
2023/03/16 00:29:55;;;;;;;4.35;2.58;;;4.60;99.90;;;;;;4954796;28;92526;-74
2023/03/16 00:32:25;;;;;;;5.95;2.40;;;4.60;99.90;;;;;;4955504;28;92454;-74
2023/03/16 00:34:53;;;;;;;6.65;2.88;;;4.60;99.90;;;;;;4971667;28;96371;-74
2023/03/16 00:37:22;;;;;;;5.35;2.78;;;4.60;99.90;;;;;;4938387;28;105944;-74
2023/03/16 00:39:51;;;;;;;2.95;2.17;;;4.60;99.90;;;;;;4954215;28;95453;-74
2023/03/16 00:42:18;;;;;;;8.13;3.10;;;4.60;99.90;;;;;;4954798;28;92527;-74
2023/03/16 00:44:45;;;;;;;5.75;3.38;;;4.60;99.90;;;;;;4938985;28;94817;-74
2023/03/16 00:47:13;;;;;;;4.30;2.40;;;4.60;99.90;;;;;;4954699;28;95702;-74
2023/03/16 00:49:44;;;;;;;6.50;3.10;;;4.60;99.90;;;;;;4954983;28;92466;-74
2023/03/16 00:52:15;;;;;;;6.97;2.97;;;4.50;99.90;;;;;;4956283;28;92502;-74
2023/03/16 00:54:44;;;;;;;5.68;3.05;;;4.50;99.90;;;;;;4954862;28;96059;-74
2023/03/16 00:57:15;;;;;;;6.45;3.00;;;4.50;99.90;;;;;;4955297;28;95807;-74
2023/03/16 00:59:42;;;;;;;6.53;3.10;;;4.50;99.90;;;;;;4971152;28;92539;-74
2023/03/16 01:02:09;;;;;;;5.55;2.92;;;4.60;99.90;;;;;;4971118;28;92556;-74
2023/03/16 01:04:38;;;;;;;4.40;2.63;;;4.60;99.90;;;;;;4954622;28;95621;-74
2023/03/16 01:07:12;;;;;;;3.25;2.63;;;4.60;99.90;;;;;;4970573;28;95359;-74
2023/03/16 01:09:40;;;;;;;6.43;3.00;;;4.60;99.90;;;;;;4956645;28;93480;-74
2023/03/16 01:12:12;;;;;;;4.10;2.95;;;4.60;99.90;;;;;;4954957;28;92946;-74
2023/03/16 01:14:39;;;;;;;4.78;3.45;;;4.60;99.90;;;;;;4954656;28;95693;-74
2023/03/16 01:17:08;;;;;;;5.88;3.50;;;4.60;99.90;;;;;;4954560;28;95608;-74
2023/03/16 01:19:36;;;;;;;6.82;2.92;;;4.60;99.90;;;;;;4955910;28;92403;-74
2023/03/16 01:22:08;;;;;;;4.10;2.58;;;4.60;99.90;;;;;;4954811;28;91845;-74
2023/03/16 01:24:38;;;;;;;4.73;2.40;;;4.70;99.90;;;;;;4938337;28;95540;-74
2023/03/16 01:27:07;;;;;;;4.60;2.95;;;4.60;99.90;;;;;;4938392;28;95578;-74
2023/03/16 01:29:34;;;;;;;4.90;2.65;;;4.70;99.90;;;;;;4953254;28;94815;-74
2023/03/16 01:32:03;;;;;;;4.38;2.40;;;4.70;99.90;;;;;;4954483;28;92542;-74
2023/03/16 01:34:31;;;;;;;2.65;2.45;;;4.70;99.90;;;;;;4953611;28;95764;-74
2023/03/16 01:36:59;;;;;;;4.50;2.78;;;4.70;99.90;;;;;;4970497;28;94354;-74
2023/03/16 01:39:39;;;;;;;4.82;2.72;;;4.70;99.90;;;;;;4954254;28;92489;-74
2023/03/16 01:42:06;;;;;;;11.27;2.80;;;4.70;99.90;;;;;;4956893;28;92582;-74
2023/03/16 01:45:31;;;;;;;5.00;2.60;;;4.70;99.90;;;;;;4958890;28;93257;-74
2023/03/16 01:47:58;;;;;;;6.13;2.95;;;4.70;99.90;;;;;;4882891;28;94876;-74
2023/03/16 01:50:26;;;;;;;4.03;2.50;;;4.70;99.90;;;;;;4898198;28;92419;-74
2023/03/16 01:52:53;;;;;;;8.38;3.13;;;4.70;99.90;;;;;;4934843;28;92518;-74
2023/03/16 01:55:21;;;;;;;4.47;2.53;;;4.70;99.90;;;;;;4955818;28;95684;-74
2023/03/16 01:57:48;;;;;;;6.40;2.65;;;4.70;99.90;;;;;;4941411;28;98161;-74
2023/03/16 02:00:18;;;;;;;4.03;2.17;;;4.70;99.90;;;;;;4957442;28;92508;-74
2023/03/16 02:03:10;;;;;;;9.55;2.83;;;4.70;99.90;;;;;;4943549;28;92555;-74
2023/03/16 02:06:03;;;;;;;2.97;2.55;;;4.70;99.90;;;;;;4957317;28;95633;-74
2023/03/16 02:08:32;;;;;;;4.78;2.65;;;4.80;99.90;;;;;;4957071;28;95204;-74
2023/03/16 02:11:01;;;;;;;7.45;3.45;;;4.70;99.90;;;;;;4957411;28;92419;-74
2023/03/16 02:13:49;;;;;;;9.18;3.08;;;4.70;99.90;;;;;;4974104;28;92300;-74
2023/03/16 02:16:18;;;;;;;6.40;2.70;;;4.70;99.90;;;;;;4973354;28;95836;-74
2023/03/16 02:18:48;;;;;;;3.17;2.88;;;4.70;99.90;;;;;;4973284;28;95428;-74
2023/03/16 02:21:38;;;;;;;4.07;3.20;;;4.70;99.90;;;;;;4972513;28;95275;-74
2023/03/16 02:24:05;;;;;;;4.15;3.25;;;4.70;99.90;;;;;;4957224;28;92466;-74
2023/03/16 02:26:46;;;;;;;5.78;3.03;;;4.60;99.90;;;;;;4956996;28;95347;-74
2023/03/16 02:29:29;;;;;;;6.13;3.13;;;4.60;99.90;;;;;;4973144;28;95542;-74
2023/03/16 02:31:58;;;;;;;5.82;2.85;;;4.60;99.90;;;;;;4957068;28;92522;-74
2023/03/16 02:34:26;;;;;;;5.97;3.17;;;4.60;99.90;;;;;;4958146;28;92746;-74
2023/03/16 02:36:55;;;;;;;7.70;3.50;;;4.70;99.90;;;;;;4973366;28;95527;-74
2023/03/16 02:39:24;;;;;;;7.13;3.40;;;4.60;99.90;;;;;;4957214;28;95602;-74
2023/03/16 02:41:51;;;;;;;4.97;2.90;;;4.70;99.90;;;;;;4957015;28;92612;-74
2023/03/16 02:44:23;;;;;;;4.05;2.80;;;4.70;99.90;;;;;;4958455;28;92445;-74
2023/03/16 02:46:56;;;;;;;4.57;3.15;;;4.70;99.90;;;;;;4955558;28;97940;-74
2023/03/16 02:49:28;;;;;;;4.75;3.92;;;4.70;99.90;;;;;;4973010;28;97831;-74
2023/03/16 02:51:56;;;;;;;4.88;3.17;;;4.70;99.90;;;;;;4956754;28;93177;-75
2023/03/16 02:54:23;;;;;;;3.30;2.83;;;4.80;99.90;;;;;;4956266;28;92525;-74
2023/03/16 02:56:51;;;;;;;6.45;2.75;;;4.80;99.90;;;;;;4956486;28;95385;-74
2023/03/16 02:59:19;;;;;;;5.78;3.13;;;4.80;99.90;;;;;;4956581;28;95440;-74
2023/03/16 03:01:45;;;;;;;5.57;3.20;;;4.80;99.90;;;;;;4956596;28;92451;-74
2023/03/16 03:04:12;;;;;;;9.80;4.05;;;4.80;99.90;;;;;;4957112;28;91745;-74
2023/03/16 03:06:40;;;;;;;6.10;3.20;;;4.90;99.90;;;;;;4971859;28;103790;-74
2023/03/16 03:09:10;;;;;;;4.43;2.90;;;5.00;99.90;;;;;;4956272;28;95476;-74
2023/03/16 03:11:38;;;;;;;4.43;3.63;;;5.00;99.90;;;;;;4939154;28;94815;-74
2023/03/16 03:14:05;;;;;;;3.38;2.53;;;5.00;99.90;;;;;;4956418;28;92645;-74
2023/03/16 03:16:32;;;;;;;3.53;3.20;;;5.00;99.90;;;;;;4972283;28;95641;-74
2023/03/16 03:18:59;;;;;;;5.32;3.50;;;5.10;99.90;;;;;;4955977;28;95644;-74
2023/03/16 03:21:29;;;;;;;8.85;3.88;;;5.10;99.90;;;;;;4956608;28;92957;-74
2023/03/16 03:23:56;;;;;;;6.35;3.45;;;5.10;99.90;;;;;;4940345;28;92476;-74
2023/03/16 03:26:23;;;;;;;4.32;2.65;;;5.10;99.90;;;;;;4956160;28;95531;-74
2023/03/16 03:28:51;;;;;;;6.40;3.35;;;5.10;99.90;;;;;;4972610;28;95981;-74
2023/03/16 03:31:20;;;;;;;8.00;3.25;;;5.10;99.90;;;;;;4956110;28;92461;-74
2023/03/16 03:33:49;;;;;;;5.70;3.60;;;5.10;99.90;;;;;;4972292;28;92566;-74
2023/03/16 03:36:16;;;;;;;7.70;2.95;;;5.10;99.90;;;;;;4954750;28;98186;-74
2023/03/16 03:38:44;;;;;;;6.30;3.25;;;5.20;99.90;;;;;;4955733;28;97653;-74
2023/03/16 03:41:11;;;;;;;4.90;2.70;;;5.20;99.90;;;;;;4972389;28;92506;-74
2023/03/16 03:43:38;;;;;;;5.38;3.22;;;5.20;99.90;;;;;;4955664;28;92594;-74
2023/03/16 03:46:11;;;;;;;4.65;3.15;;;5.10;99.90;;;;;;4955947;28;95870;-74
2023/03/16 03:48:38;;;;;;;3.60;2.72;;;5.10;99.90;;;;;;4955639;28;95755;-74
2023/03/16 03:51:05;;;;;;;3.42;2.90;;;5.10;99.90;;;;;;4939807;28;92552;-74
2023/03/16 03:53:52;;;;;;;6.78;3.13;;;5.10;99.90;;;;;;4956001;28;91774;-74
2023/03/16 03:56:38;;;;;;;6.55;3.00;;;5.10;99.90;;;;;;4955532;28;95827;-74
2023/03/16 03:59:09;;;;;;;4.40;3.13;;;5.10;99.90;;;;;;4955701;28;94960;-74
2023/03/16 04:02:04;;;;;;;6.80;2.60;;;5.10;99.90;;;;;;4954475;28;94924;-74
2023/03/16 04:04:41;;;;;;;8.13;3.47;;;5.10;99.90;;;;;;4954262;28;92491;-74
2023/03/16 04:07:10;;;;;;;5.65;3.50;;;5.10;99.90;;;;;;4955327;28;95731;-74
2023/03/16 04:09:38;;;;;;;4.32;2.63;;;5.10;99.90;;;;;;4955179;28;95028;-74
2023/03/16 04:12:09;;;;;;;5.68;3.17;;;5.00;99.90;;;;;;4971914;28;92467;-74
2023/03/16 04:14:36;;;;;;;6.70;3.58;;;5.10;99.90;;;;;;4971718;28;93241;-74
2023/03/16 04:17:07;;;;;;;4.90;3.53;;;5.10;99.90;;;;;;4955490;28;96165;-74
2023/03/16 04:19:36;;;;;;;5.05;3.42;;;5.10;99.90;;;;;;4955747;28;95283;-74
2023/03/16 04:22:08;;;;;;;6.30;3.72;;;5.10;99.90;;;;;;4940094;28;92918;-74
2023/03/16 04:24:35;;;;;;;5.80;3.60;;;5.10;99.90;;;;;;4939217;28;92644;-74
2023/03/16 04:27:02;;;;;;;7.18;3.75;;;5.10;99.90;;;;;;4953830;28;98329;-74
2023/03/16 04:29:30;;;;;;;5.00;3.45;;;5.10;99.90;;;;;;4955097;28;97917;-74
2023/03/16 04:31:58;;;;;;;6.18;3.47;;;5.10;99.90;;;;;;4971432;28;92468;-74
2023/03/16 04:34:27;;;;;;;5.38;3.58;;;5.10;99.90;;;;;;4971197;28;93087;-74
2023/03/16 04:36:57;;;;;;;5.78;3.00;;;5.10;99.90;;;;;;4954866;28;95592;-74
2023/03/16 04:39:24;;;;;;;6.13;3.60;;;5.00;99.90;;;;;;4955148;28;95066;-74
2023/03/16 04:41:52;;;;;;;7.85;4.45;;;5.00;99.90;;;;;;4954942;28;92465;-74
2023/03/16 04:44:22;;;;;;;7.07;3.70;;;5.10;99.90;;;;;;4939571;28;91914;-74
2023/03/16 04:46:49;;;;;;;4.60;3.63;;;5.10;99.90;;;;;;4954838;28;95307;-74
2023/03/16 04:49:16;;;;;;;6.43;3.72;;;5.10;99.90;;;;;;4954802;28;94849;-74
2023/03/16 04:51:44;;;;;;;6.63;4.32;;;5.10;99.90;;;;;;4953594;28;94916;-74
2023/03/16 04:54:15;;;;;;;5.75;3.80;;;5.10;99.90;;;;;;4923568;28;92561;-74
2023/03/16 04:56:42;;;;;;;5.20;4.10;;;5.10;99.90;;;;;;4954540;28;95657;-74
2023/03/16 04:59:18;;;;;;;5.53;3.67;;;5.10;99.90;;;;;;4954673;28;95113;-74
2023/03/16 05:02:00;;;;;;;4.20;3.65;;;5.10;99.90;;;;;;4954775;28;92943;-74
2023/03/16 05:04:27;;;;;;;6.07;3.85;;;5.10;99.90;;;;;;4954837;28;92504;-74
2023/03/16 05:06:54;;;;;;;5.10;3.53;;;5.10;99.90;;;;;;4954077;28;94300;-74
2023/03/16 05:09:26;;;;;;;4.50;3.80;;;5.10;99.90;;;;;;4954991;28;95567;-74
2023/03/16 05:11:53;;;;;;;7.32;3.95;;;5.10;99.90;;;;;;4954650;28;93153;-74
2023/03/16 05:14:20;;;;;;;7.25;4.45;;;5.20;99.90;;;;;;4954690;28;92508;-74
2023/03/16 05:17:16;;;;;;;5.18;4.32;;;5.20;99.90;;;;;;4936197;28;96565;-74
2023/03/16 05:19:45;;;;;;;5.25;3.58;;;5.10;99.90;;;;;;4960919;28;98045;-74
2023/03/16 05:22:13;;;;;;;8.50;4.90;;;5.10;99.90;;;;;;4961131;28;92554;-74
2023/03/16 05:24:55;;;;;;;9.32;3.88;;;5.10;99.90;;;;;;4961005;28;92462;-74
2023/03/16 05:27:23;;;;;;;6.18;4.45;;;5.20;99.90;;;;;;4960924;28;96173;-74
2023/03/16 05:29:50;;;;;;;4.63;3.90;;;5.20;99.90;;;;;;4962021;28;92966;-74
2023/03/16 05:32:17;;;;;;;10.27;4.28;;;5.20;99.90;;;;;;4960898;28;92420;-74
2023/03/16 05:34:45;;;;;;;5.72;4.07;;;5.20;99.90;;;;;;4977723;28;92244;-74
2023/03/16 05:37:12;;;;;;;3.83;3.47;;;5.20;99.90;;;;;;4960766;28;95590;-74
2023/03/16 05:39:39;;;;;;;4.55;4.00;;;5.20;99.90;;;;;;4960758;28;95426;-74
2023/03/16 05:42:07;;;;;;;5.63;4.00;;;5.20;99.90;;;;;;4975628;28;94859;-74
2023/03/16 05:44:41;;;;;;;7.63;4.15;;;5.20;99.90;;;;;;4945530;28;92486;-74
2023/03/16 05:47:41;;;;;;;6.22;4.15;;;5.20;99.90;;;;;;4951000;28;93980;-74
2023/03/16 05:50:10;;;;;;;6.40;4.18;;;5.20;99.90;;;;;;4960508;28;95378;-74
2023/03/16 05:52:41;;;;;;;8.07;4.03;;;5.20;99.90;;;;;;4962628;28;92922;-74
2023/03/16 05:55:16;;;;;;;7.55;4.28;;;5.20;99.90;;;;;;4945335;28;92545;-74
2023/03/16 05:57:46;;;;;;;5.38;4.15;;;5.20;99.90;;;;;;4960678;28;94253;-74
2023/03/16 06:00:15;;;;;;;8.13;4.43;;;5.20;99.90;;;;;;4960607;28;95774;-74
2023/03/16 06:02:52;;;;;;;6.40;3.35;;;5.20;99.90;;;;;;4960854;28;92463;-74
2023/03/16 06:05:23;;;;;;;8.55;4.50;;;5.30;99.90;;;;;;4945141;28;92550;-74
2023/03/16 06:07:51;;;;;;;5.70;4.25;;;5.30;99.90;;;;;;4960214;28;96589;-74
2023/03/16 06:10:19;;;;;;;5.20;3.63;;;5.30;99.90;;;;;;4976444;28;98072;-74
2023/03/16 06:12:46;;;;;;;4.22;3.78;;;5.30;99.90;;;;;;4977077;28;92568;-74
2023/03/16 06:15:13;;;;;;;5.00;3.90;;;5.30;99.90;;;;;;4960350;28;92474;-74
2023/03/16 06:17:40;;;;;;;6.50;3.78;;;5.40;99.90;;;;;;4976727;28;95571;-74
2023/03/16 06:20:11;;;;;;;5.95;4.32;;;5.40;99.90;;;;;;4961586;28;93023;-74
2023/03/16 06:22:41;;;;;;;5.30;3.87;;;5.40;99.90;;;;;;4960300;28;92520;-75
2023/03/16 06:25:11;;;;;;;4.60;3.90;;;5.40;99.90;;;;;;4960441;28;91725;-75
2023/03/16 06:27:38;;;;;;;5.07;3.80;;;5.50;99.90;;;;;;4957621;28;95230;-75
2023/03/16 06:30:12;;;;;;;6.20;3.17;;;5.50;99.90;;;;;;4956823;28;95069;-74
2023/03/16 06:32:44;;;;;;;8.60;4.13;;;5.50;99.90;;;;;;4955747;28;94810;-74
2023/03/16 06:35:12;;;;;;;6.82;3.67;;;5.60;99.90;;;;;;4956736;28;92514;-74
2023/03/16 06:37:44;;;;;;;4.17;3.63;;;5.60;99.90;;;;;;4972267;28;95562;-74
2023/03/16 06:40:37;;;;;;;5.13;3.40;;;5.60;99.90;;;;;;4956732;28;94110;-74
2023/03/16 06:43:05;;;;;;;4.38;3.78;;;5.60;99.90;;;;;;4956696;28;92582;-75
2023/03/16 06:45:32;;;;;;;5.25;3.97;;;5.60;99.90;;;;;;4956768;28;95720;-75
2023/03/16 06:47:59;;;;;;;4.10;2.92;;;5.70;99.90;;;;;;4972876;28;95582;-75
2023/03/16 06:50:27;;;;;;;4.97;4.00;;;5.70;99.90;;;;;;4956542;28;94290;-75
2023/03/16 06:52:55;;;;;;;5.72;4.22;;;5.80;99.90;;;;;;4972984;28;92611;-75
2023/03/16 06:55:22;;;;;;;4.97;3.85;;;5.80;99.90;;;;;;4940458;28;92537;-75
2023/03/16 06:57:49;;;;;;;5.18;3.47;;;5.90;99.90;;;;;;4954933;28;98051;-75
2023/03/16 07:00:18;;;;;;;5.50;4.00;;;5.90;99.90;;;;;;4955973;28;97680;-75
2023/03/16 07:02:45;;;;;;;4.70;3.60;;;5.90;99.90;;;;;;4956796;28;92590;-75
2023/03/16 07:05:13;;;;;;;3.85;3.45;;;5.90;99.90;;;;;;4956599;28;93121;-75
2023/03/16 07:07:41;;;;;;;4.47;3.67;;;6.00;99.90;;;;;;4972167;28;95390;-75
2023/03/16 07:10:14;;;;;;;4.70;3.88;;;6.00;99.90;;;;;;4957242;28;93155;-75
2023/03/16 07:12:41;;;;;;;5.07;3.85;;;6.10;99.90;;;;;;4956627;28;92410;-75
2023/03/16 07:15:10;;;;;;;3.45;2.95;;;6.20;99.90;;;;;;4956271;28;91735;-75
2023/03/16 07:17:38;;;;;;;7.00;4.25;;;6.20;99.90;;;;;;4956147;28;95681;-75
2023/03/16 07:20:09;;;;;;;7.65;4.38;;;6.20;99.90;;;;;;4955850;28;95656;-75
2023/03/16 07:22:38;;;;;;;4.60;3.60;;;6.20;99.90;;;;;;4939337;28;94943;-75
2023/03/16 07:25:07;;;;;;;5.88;4.28;;;6.30;99.90;;;;;;4955738;28;92419;-75
2023/03/16 07:27:34;;;;;;;4.70;3.92;;;6.40;99.90;;;;;;4972307;28;95741;-75
2023/03/16 07:30:05;;;;;;;6.38;3.60;;;6.40;99.90;;;;;;4955665;28;94880;-75
2023/03/16 07:32:35;;;;;;;5.78;3.78;;;6.40;99.90;;;;;;4956240;28;92575;-75
2023/03/16 07:35:03;;;;;;;6.30;3.45;;;6.50;99.90;;;;;;4955913;28;92568;-75
2023/03/16 07:37:33;;;;;;;8.73;4.28;;;6.50;99.90;;;;;;4972153;28;95340;-75
2023/03/16 07:40:04;;;;;;;5.80;3.90;;;6.60;99.90;;;;;;4956137;28;95323;-75
2023/03/16 07:42:30;;;;;;;6.00;3.67;;;6.60;99.90;;;;;;4955984;28;92419;-75
2023/03/16 07:45:04;;;;;;;4.60;3.05;;;6.60;99.90;;;;;;4972369;28;93382;-75
2023/03/16 07:47:32;;;;;;;6.80;4.00;;;6.70;99.90;;;;;;4970846;28;97708;-75
2023/03/16 07:50:07;;;;;;;4.60;3.90;;;6.70;99.90;;;;;;4955270;28;97300;-75
2023/03/16 07:52:35;;;;;;;5.50;4.03;;;6.70;99.90;;;;;;4956020;28;92626;-75
2023/03/16 07:55:04;;;;;;;5.18;3.92;;;6.80;99.90;;;;;;4955791;28;92981;-75
2023/03/16 07:57:31;;;;;;;8.52;3.90;;;6.80;99.90;;;;;;4955705;28;95123;-75
2023/03/16 07:59:59;;;;;;;4.78;3.78;;;6.80;99.90;;;;;;4971641;28;95117;-75
2023/03/16 08:02:26;;;;;;;8.00;4.90;;;6.90;99.90;;;;;;4955522;28;92548;-75
2023/03/16 08:04:53;;;;;;;4.10;3.55;;;6.90;99.90;;;;;;4956134;28;91697;-75
2023/03/16 08:07:20;;;;;;;7.65;3.45;;;6.90;99.90;;;;;;4955245;28;93322;-75
2023/03/16 08:10:05;;;;;;;5.70;4.07;;;6.90;99.90;;;;;;4955149;28;94020;-75
2023/03/16 08:12:48;;;;;;;7.93;4.63;;;7.00;99.90;;;;;;4954582;28;94889;-75
2023/03/16 08:15:16;;;;;;;7.60;4.03;;;7.00;99.90;;;;;;4955152;28;92403;-75
2023/03/16 08:17:44;;;;;;;4.30;3.63;;;7.10;99.90;;;;;;4955282;28;94049;-75
2023/03/16 08:20:17;;;;;;;4.35;3.42;;;7.20;99.90;;;;;;4939580;28;95024;-75
2023/03/16 08:22:45;;;;;;;6.20;3.92;;;7.10;99.90;;;;;;4955336;28;92489;-75
2023/03/16 08:25:15;;;;;;;5.70;4.03;;;7.10;99.90;;;;;;4939274;28;92526;-75
2023/03/16 08:27:52;;;;;;;6.22;4.18;;;7.20;99.90;;;;;;4956527;28;95598;-75
2023/03/16 08:30:19;;;;;;;5.60;4.18;;;7.30;99.90;;;;;;4955323;28;95582;-75
2023/03/16 08:32:53;;;;;;;4.07;3.25;;;7.40;99.90;;;;;;4955256;28;92572;-75
2023/03/16 08:35:20;;;;;;;4.75;3.97;;;7.40;99.90;;;;;;4955185;28;92560;-75
2023/03/16 08:37:48;;;;;;;5.25;3.60;;;7.40;99.90;;;;;;4969841;28;95553;-75
2023/03/16 08:40:19;;;;;;;3.80;3.40;;;7.40;99.90;;;;;;4954802;28;97771;-75
2023/03/16 08:42:49;;;;;;;4.95;3.53;;;7.40;99.90;;;;;;4971261;28;92507;-75
2023/03/16 08:45:18;;;;;;;5.82;4.63;;;7.50;99.90;;;;;;4971310;28;92544;-75
2023/03/16 08:47:45;;;;;;;5.78;3.60;;;7.50;99.90;;;;;;4954638;28;95189;-75
2023/03/16 08:50:14;;;;;;;6.43;3.97;;;7.50;99.90;;;;;;4937961;28;95613;-75
2023/03/16 08:52:41;;;;;;;5.47;3.58;;;7.60;99.90;;;;;;4955996;28;94542;-75
2023/03/16 08:55:09;;;;;;;6.22;3.92;;;7.70;99.90;;;;;;4956542;28;91698;-75
2023/03/16 08:57:38;;;;;;;6.25;4.57;;;7.70;99.90;;;;;;4970785;28;95910;-75
2023/03/16 09:00:12;;;;;;;8.70;4.00;;;7.80;99.90;;;;;;4954500;28;94270;-75
2023/03/16 09:02:40;;;;;;;5.60;4.65;;;7.90;99.90;;;;;;4955426;28;95428;-75
2023/03/16 09:05:10;;;;;;;4.25;3.83;;;8.00;99.90;;;;;;4955299;28;100266;-75
2023/03/16 09:07:38;;;;;;;4.32;3.47;;;8.10;99.90;;;;;;4955305;28;92903;-75
2023/03/16 09:10:12;;;;;;;7.60;4.22;;;8.10;99.90;;;;;;4971092;28;93217;-75
2023/03/16 09:12:39;;;;;;;6.30;3.67;;;8.20;99.90;;;;;;4956177;28;92350;-75
2023/03/16 09:15:09;;;;;;;4.65;4.07;;;8.20;99.90;;;;;;4955829;28;92481;-75
2023/03/16 09:17:35;;;;;;;5.20;3.72;;;8.30;99.90;;;;;;4955061;28;93182;-75
2023/03/16 09:20:04;;;;;;;6.70;3.83;;;8.20;99.90;;;;;;4971492;28;92861;-75
2023/03/16 09:22:47;;;;;;;5.70;4.50;;;8.20;99.90;;;;;;4955931;28;92411;-75
2023/03/16 09:25:14;;;;;;;5.30;4.00;;;8.20;99.90;;;;;;4955913;28;92462;-75
2023/03/16 09:27:42;;;;;;;7.30;3.92;;;8.10;99.90;;;;;;4954574;28;95750;-75
2023/03/16 09:30:09;;;;;;;4.25;3.72;;;8.10;99.90;;;;;;4953604;28;106465;-75
2023/03/16 09:32:37;;;;;;;4.38;3.78;;;8.10;99.90;;;;;;4954413;28;92540;-75
2023/03/16 09:35:07;;;;;;;5.70;4.05;;;8.20;99.90;;;;;;4970485;28;92489;-75
2023/03/16 09:37:35;;;;;;;6.28;4.15;;;8.30;99.90;;;;;;4970762;28;93312;-75
2023/03/16 09:40:25;;;;;;;6.45;4.20;;;8.30;99.90;;;;;;4954147;28;95504;-75
2023/03/16 09:43:24;;;;;;;6.00;4.57;;;8.30;99.90;;;;;;4954474;28;92428;-75
2023/03/16 09:46:11;;;;;;;6.05;4.07;;;8.40;99.90;;;;;;4970983;28;91830;-75
2023/03/16 09:48:40;;;;;;;6.68;3.65;;;8.50;99.90;;;;;;4953955;28;95835;-75
2023/03/16 09:51:17;;;;;;;5.65;4.57;;;8.30;99.90;;;;;;4955330;28;93053;-75
2023/03/16 09:53:46;;;;;;;5.65;4.45;;;8.50;99.90;;;;;;4954601;28;94846;-75
2023/03/16 09:56:26;;;;;;;6.85;4.95;;;8.50;99.90;;;;;;4954048;28;92513;-75
2023/03/16 09:58:54;;;;;;;6.07;4.45;;;8.60;99.90;;;;;;4954096;28;95525;-75
2023/03/16 10:01:27;;;;;;;6.53;4.55;;;8.60;99.90;;;;;;4954032;28;92566;-75
2023/03/16 10:04:15;;;;;;;4.30;3.90;;;8.70;99.90;;;;;;4973353;28;92563;-75
2023/03/16 10:07:18;;;;;;;4.75;4.35;;;8.70;99.90;;;;;;4958475;28;93394;-75
2023/03/16 10:10:05;;;;;;;5.60;4.30;;;8.80;99.90;;;;;;4958520;28;93177;-75
2023/03/16 10:12:40;;;;;;;6.20;4.05;;;8.90;99.90;;;;;;4959031;28;92942;-75
2023/03/16 10:15:15;;;;;;;5.63;4.35;;;8.90;99.90;;;;;;4959105;28;92488;-75
2023/03/16 10:18:05;;;;;;;4.55;3.80;;;9.00;99.90;;;;;;4973923;28;93050;-75
2023/03/16 10:20:33;;;;;;;6.15;4.10;;;9.10;99.90;;;;;;4955641;28;99906;-75
2023/03/16 10:23:20;;;;;;;6.55;4.90;;;9.30;99.90;;;;;;4958393;28;95548;-75
2023/03/16 10:25:49;;;;;;;6.25;4.30;;;9.50;99.90;;;;;;4958677;28;92508;-75
2023/03/16 10:28:21;;;;;;;5.20;4.70;;;9.40;99.90;;;;;;4957293;28;93025;-75
2023/03/16 10:30:51;;;;;;;4.72;4.22;;;9.30;99.90;;;;;;4958442;28;93288;-75
2023/03/16 10:33:21;;;;;;;4.82;4.07;;;9.50;99.90;;;;;;4973059;28;92584;-75
2023/03/16 10:35:54;;;;;;;7.28;5.03;;;9.40;99.90;;;;;;4956801;28;92950;-75
2023/03/16 10:38:39;;;;;;;9.48;4.95;;;9.40;99.90;;;;;;4958856;28;91710;-75
2023/03/16 10:41:45;;;;;;;6.38;5.30;;;9.50;99.90;;;;;;4956546;28;96021;-75
2023/03/16 10:44:30;;;;;;;6.82;5.68;;;9.50;99.90;;;;;;4973327;28;93068;-75
2023/03/16 10:46:59;;;;;;;11.02;6.53;;;9.50;99.90;;;;;;4957197;28;94854;-75
2023/03/16 10:49:40;;;;;;;4.95;4.47;;;9.40;99.90;;;;;;4940553;28;92602;-75
2023/03/16 10:52:38;;;;;;;5.07;4.25;;;9.30;99.90;;;;;;4956510;28;95757;-75
2023/03/16 10:55:29;;;;;;;6.57;4.40;;;9.20;99.90;;;;;;4952261;28;92974;-75
2023/03/16 10:57:56;;;;;;;6.15;3.90;;;9.10;99.90;;;;;;4958038;28;92549;-75
2023/03/16 11:00:27;;;;;;;9.80;4.57;;;9.00;99.90;;;;;;4956482;28;92587;-75
2023/03/16 11:02:58;;;;;;;6.15;4.13;;;9.10;99.90;;;;;;4956340;28;95937;-75
2023/03/16 11:05:28;;;;;;;6.75;4.93;;;9.10;99.90;;;;;;4973159;28;95771;-75
2023/03/16 11:07:56;;;;;;;4.90;3.95;;;9.00;99.90;;;;;;4957725;28;92556;-75
2023/03/16 11:10:36;;;;;;;6.22;4.85;;;8.90;99.90;;;;;;4972674;28;92694;-75
2023/03/16 11:13:18;;;;;;;6.07;4.38;;;9.10;99.90;;;;;;4954535;28;99478;-75
2023/03/16 11:16:11;;;;;;;4.95;4.45;;;9.10;99.90;;;;;;4957387;28;95338;-75
2023/03/16 11:19:02;;;;;;;6.38;4.20;;;9.10;99.90;;;;;;4957279;28;92951;-75
2023/03/16 11:21:50;;;;;;;5.35;4.63;;;9.10;99.90;;;;;;4957907;28;92451;-75
2023/03/16 11:24:29;;;;;;;6.40;4.03;;;9.10;99.90;;;;;;4957738;28;93362;-75
2023/03/16 11:27:00;;;;;;;4.97;4.00;;;9.10;99.90;;;;;;4955494;28;95531;-75
2023/03/16 11:30:04;;;;;;;6.28;5.03;;;9.00;99.90;;;;;;4957803;28;92500;-75
2023/03/16 11:32:37;;;;;;;4.95;3.50;;;9.10;99.90;;;;;;4957959;28;91765;-75
2023/03/16 11:35:31;;;;;;;6.03;4.23;;;9.00;99.90;;;;;;4957467;28;93163;-75
2023/03/16 11:38:15;;;;;;;5.25;3.78;;;9.10;99.90;;;;;;4939708;28;93993;-75
2023/03/16 11:41:03;;;;;;;5.05;4.07;;;9.10;99.90;;;;;;4954744;28;94933;-75
2023/03/16 11:43:39;;;;;;;6.03;4.28;;;8.90;99.90;;;;;;4955882;28;92511;-75
2023/03/16 11:46:23;;;;;;;6.40;3.72;;;8.90;99.90;;;;;;4955876;28;95822;-75
2023/03/16 11:49:11;;;;;;;7.45;4.30;;;8.90;99.90;;;;;;4957117;28;93659;-75
2023/03/16 11:51:50;;;;;;;5.30;4.13;;;8.80;99.90;;;;;;4972190;28;92588;-75
2023/03/16 11:54:46;;;;;;;5.45;3.90;;;8.80;99.90;;;;;;4972018;28;93063;-75
2023/03/16 11:57:42;;;;;;;4.22;3.83;;;8.90;99.90;;;;;;4956920;28;93060;-75
2023/03/16 12:00:30;;;;;;;4.78;3.85;;;8.80;99.90;;;;;;4956346;28;92792;-75
2023/03/16 12:03:21;;;;;;;4.20;3.22;;;8.90;99.90;;;;;;4945303;28;92549;-75
2023/03/16 12:06:10;;;;;;;3.88;3.50;;;8.90;99.90;;;;;;4957089;28;92571;-75
2023/03/16 12:09:07;;;;;;;6.43;3.33;;;9.00;99.90;;;;;;4968432;28;95597;-75
2023/03/16 12:12:06;;;;;;;4.30;3.45;;;9.10;99.90;;;;;;4955262;28;98025;-75
2023/03/16 12:14:44;;;;;;;6.07;4.10;;;9.20;99.90;;;;;;4923476;28;93002;-75
2023/03/16 12:17:29;;;;;;;7.47;5.18;;;9.20;99.90;;;;;;4971595;28;92497;-75
2023/03/16 12:20:17;;;;;;;3.70;3.40;;;9.30;99.90;;;;;;4971080;28;96747;-75
2023/03/16 12:23:13;;;;;;;3.55;3.15;;;9.30;99.90;;;;;;4954944;28;93061;-75
2023/03/16 12:25:44;;;;;;;4.35;3.22;;;9.30;99.90;;;;;;4929935;28;92472;-75
2023/03/16 12:28:24;;;;;;;5.43;3.80;;;9.30;99.90;;;;;;4957202;28;91691;-75
2023/03/16 12:30:54;;;;;;;4.13;3.72;;;9.50;99.90;;;;;;4956563;28;93324;-75
2023/03/16 12:33:39;;;;;;;5.72;3.33;;;9.60;99.90;;;;;;4956205;28;93155;-75
2023/03/16 12:36:06;;;;;;;3.47;3.17;;;9.70;99.90;;;;;;4953825;28;94951;-75
2023/03/16 12:38:39;;;;;;;5.60;3.95;;;9.90;99.90;;;;;;4954986;28;102535;-75
2023/03/16 12:41:45;;;;;;;5.15;3.72;;;10.00;99.90;;;;;;4956254;28;93169;-75
2023/03/16 12:44:21;;;;;;;5.25;3.65;;;10.30;99.90;;;;;;4956127;28;93047;-75
2023/03/16 12:46:56;;;;;;;3.58;3.10;;;10.30;99.90;;;;;;4956657;28;93020;-75
2023/03/16 12:49:24;;;;;;;6.47;3.97;;;10.30;99.90;;;;;;4956410;28;92480;-75
2023/03/16 12:52:06;;;;;;;4.15;3.75;;;10.30;99.90;;;;;;4956042;28;95409;-75
2023/03/16 12:54:36;;;;;;;4.75;3.75;;;10.40;99.90;;;;;;4956870;28;93103;-75
2023/03/16 12:57:06;;;;;;;4.18;3.78;;;10.50;99.90;;;;;;4954910;28;92432;-75
2023/03/16 12:59:51;;;;;;;4.43;3.88;;;10.50;99.90;;;;;;4956295;28;92405;-75
2023/03/16 13:02:25;;;;;;;4.97;3.75;;;10.60;99.90;;;;;;4955206;28;95378;-75
2023/03/16 13:04:58;;;;;;;8.30;3.75;;;10.70;99.90;;;;;;4956171;28;95425;-75
2023/03/16 13:07:29;;;;;;;7.70;3.88;;;10.80;99.90;;;;;;4956209;28;92519;-75
2023/03/16 13:10:03;;;;;;;5.28;3.28;;;10.80;99.90;;;;;;4956108;28;92367;-75
2023/03/16 13:12:35;;;;;;;3.78;3.38;;;10.80;99.90;;;;;;4954688;28;96085;-75
2023/03/16 13:15:27;;;;;;;4.72;3.40;;;10.90;99.90;;;;;;4970964;28;92869;-75
2023/03/16 13:18:09;;;;;;;3.83;3.42;;;11.10;99.90;;;;;;4956064;28;92526;-75
2023/03/16 13:20:53;;;;;;;3.95;3.00;;;10.90;99.90;;;;;;4955022;28;91773;-75
2023/03/16 13:23:22;;;;;;;5.85;3.80;;;11.00;99.90;;;;;;4954419;28;95942;-75
2023/03/16 13:26:14;;;;;;;3.88;3.03;;;11.10;99.90;;;;;;4954089;28;96422;-75